KCGF/CGF METAR and TAF weather

Enter ICAO airport designator
Station Type Date Time Source
KCGF METAR 2019/06/26 18:45 UTC NOAA

KCGF 261845Z 26012G18KT 20SM SCT060 SCT200 28/18 A3008


Station Type Date Time Source
KCGF Decoded METAR 2019/06/26 18:45 UTC NOAA

Cleveland / Cuyahoga, OH, United States (KCGF) 41-34N 081-29W
Jun 26, 2019 - 02:45 PM EDT / 2019.06.26 1845 UTC
Wind: from the W (260 degrees) at 14 MPH (12 KT) gusting to 21 MPH (18 KT):0
Visibility: 20 mile(s):0
Sky conditions: partly cloudy
Temperature: 82 F (28 C)
Dew Point: 64 F (18 C)
Relative Humidity: 54%
Pressure (altimeter): 30.08 in. Hg (1018 hPa)
ob: KCGF 261845Z 26012G18KT 20SM SCT060 SCT200 28/18 A3008
cycle: 19

Station Type Date Time Source
KCGF TAF 2016/07/19 12:36 UTC NOAA

TAF KCGF 191136Z 1912/2012 VRB05KT P6SM SCT080
FM191400 33008KT P6SM SCT040
FM191900 35008KT P6SM SCT060
FM200000 04003KT P6SM SCT080
FM200700 14003KT P6SM SKC

Example: see airport list